KCRS/CRS METAR and TAF weather

Enter ICAO airport designator
Station Type Date Time Source
KCRS METAR 2020/02/19 14:08 UTC NOAA

KCRS 191408Z AUTO 05009KT 10SM OVC015 08/05 A3031 RMK AO2 T00830050


Station Type Date Time Source
KCRS Decoded METAR 2020/02/19 14:08 UTC NOAA

CORSICANA AIRFIELD, TX, United States (KCRS) 32-01N 96-23W 133M
Feb 19, 2020 - 09:08 AM EST / 2020.02.19 1408 UTC
Wind: from the NE (050 degrees) at 10 MPH (9 KT):0
Visibility: 10 mile(s):0
Sky conditions: overcast
Temperature: 46.9 F (8.3 C)
Dew Point: 41.0 F (5.0 C)
Relative Humidity: 79%
Pressure (altimeter): 30.31 in. Hg (1026 hPa)
ob: KCRS 191408Z AUTO 05009KT 10SM OVC015 08/05 A3031 RMK AO2 T00830050
cycle: 14

Station Type Date Time Source
KCRS TAF UTC NOAA

Error!

Example: see airport list